sensor_id;sensor_type;location;lat;lon;timestamp;P1;durP1;ratioP1;P2;durP2;ratioP2
70825;SDS011;58446;41.490;22.098;2023-07-31T00:02:14;7.30;;;3.00;;
70825;SDS011;58446;41.490;22.098;2023-07-31T00:04:40;6.07;;;2.07;;
70825;SDS011;58446;41.490;22.098;2023-07-31T00:07:05;6.05;;;2.55;;
70825;SDS011;58446;41.490;22.098;2023-07-31T00:09:32;6.63;;;2.40;;
70825;SDS011;58446;41.490;22.098;2023-07-31T00:11:58;5.75;;;2.45;;
70825;SDS011;58446;41.490;22.098;2023-07-31T00:14:24;7.70;;;2.83;;
70825;SDS011;58446;41.490;22.098;2023-07-31T00:16:49;5.80;;;3.00;;
70825;SDS011;58446;41.490;22.098;2023-07-31T00:19:15;8.27;;;3.33;;
70825;SDS011;58446;41.490;22.098;2023-07-31T00:21:40;6.83;;;2.97;;
70825;SDS011;58446;41.490;22.098;2023-07-31T00:24:06;5.83;;;2.70;;
70825;SDS011;58446;41.490;22.098;2023-07-31T00:26:32;6.15;;;2.53;;
70825;SDS011;58446;41.490;22.098;2023-07-31T00:28:57;7.10;;;3.27;;
70825;SDS011;58446;41.490;22.098;2023-07-31T00:31:23;6.43;;;2.40;;
70825;SDS011;58446;41.490;22.098;2023-07-31T00:33:49;6.13;;;3.17;;
70825;SDS011;58446;41.490;22.098;2023-07-31T00:36:14;7.28;;;3.35;;
70825;SDS011;58446;41.490;22.098;2023-07-31T00:38:40;6.63;;;2.77;;
70825;SDS011;58446;41.490;22.098;2023-07-31T00:41:05;6.28;;;3.00;;
70825;SDS011;58446;41.490;22.098;2023-07-31T00:43:31;6.37;;;2.70;;
70825;SDS011;58446;41.490;22.098;2023-07-31T00:45:57;6.30;;;2.67;;
70825;SDS011;58446;41.490;22.098;2023-07-31T00:48:22;6.38;;;2.55;;
70825;SDS011;58446;41.490;22.098;2023-07-31T00:50:48;6.38;;;2.85;;
70825;SDS011;58446;41.490;22.098;2023-07-31T00:53:15;5.50;;;2.40;;
70825;SDS011;58446;41.490;22.098;2023-07-31T00:55:40;8.05;;;2.97;;
70825;SDS011;58446;41.490;22.098;2023-07-31T00:58:07;6.00;;;2.70;;
70825;SDS011;58446;41.490;22.098;2023-07-31T01:00:33;6.20;;;3.00;;
70825;SDS011;58446;41.490;22.098;2023-07-31T01:02:58;7.20;;;2.50;;
70825;SDS011;58446;41.490;22.098;2023-07-31T01:05:28;7.73;;;2.40;;
70825;SDS011;58446;41.490;22.098;2023-07-31T01:08:12;6.30;;;2.38;;
70825;SDS011;58446;41.490;22.098;2023-07-31T01:10:48;5.57;;;2.42;;
70825;SDS011;58446;41.490;22.098;2023-07-31T01:13:16;7.70;;;2.38;;
70825;SDS011;58446;41.490;22.098;2023-07-31T01:15:43;5.90;;;2.55;;
70825;SDS011;58446;41.490;22.098;2023-07-31T01:18:09;5.73;;;2.27;;
70825;SDS011;58446;41.490;22.098;2023-07-31T01:20:34;5.38;;;2.22;;
70825;SDS011;58446;41.490;22.098;2023-07-31T01:28:25;6.95;;;2.50;;
70825;SDS011;58446;41.490;22.098;2023-07-31T01:30:57;7.28;;;2.67;;
70825;SDS011;58446;41.490;22.098;2023-07-31T01:33:25;7.90;;;3.13;;
70825;SDS011;58446;41.490;22.098;2023-07-31T01:35:51;6.57;;;2.50;;
70825;SDS011;58446;41.490;22.098;2023-07-31T01:38:20;6.55;;;3.08;;
70825;SDS011;58446;41.490;22.098;2023-07-31T01:40:50;6.72;;;2.85;;
70825;SDS011;58446;41.490;22.098;2023-07-31T01:43:16;6.28;;;2.80;;
70825;SDS011;58446;41.490;22.098;2023-07-31T01:45:42;6.73;;;3.00;;
70825;SDS011;58446;41.490;22.098;2023-07-31T01:48:07;7.30;;;3.20;;
70825;SDS011;58446;41.490;22.098;2023-07-31T01:50:33;6.63;;;2.73;;
70825;SDS011;58446;41.490;22.098;2023-07-31T01:52:59;5.53;;;2.60;;
70825;SDS011;58446;41.490;22.098;2023-07-31T01:55:24;6.37;;;2.90;;
70825;SDS011;58446;41.490;22.098;2023-07-31T01:57:50;7.03;;;3.20;;
70825;SDS011;58446;41.490;22.098;2023-07-31T02:00:17;6.28;;;2.47;;
70825;SDS011;58446;41.490;22.098;2023-07-31T02:02:43;6.88;;;3.17;;
70825;SDS011;58446;41.490;22.098;2023-07-31T02:05:09;7.20;;;2.50;;
70825;SDS011;58446;41.490;22.098;2023-07-31T02:07:34;7.50;;;3.60;;
70825;SDS011;58446;41.490;22.098;2023-07-31T02:10:00;7.20;;;3.33;;
70825;SDS011;58446;41.490;22.098;2023-07-31T02:12:26;7.13;;;2.83;;
70825;SDS011;58446;41.490;22.098;2023-07-31T02:14:51;6.75;;;3.92;;
70825;SDS011;58446;41.490;22.098;2023-07-31T02:17:17;6.47;;;3.40;;
70825;SDS011;58446;41.490;22.098;2023-07-31T02:19:43;6.18;;;2.33;;
70825;SDS011;58446;41.490;22.098;2023-07-31T02:22:08;6.50;;;2.80;;
70825;SDS011;58446;41.490;22.098;2023-07-31T02:24:34;8.33;;;2.93;;
70825;SDS011;58446;41.490;22.098;2023-07-31T02:27:00;7.55;;;2.97;;
70825;SDS011;58446;41.490;22.098;2023-07-31T02:29:25;6.03;;;3.07;;
70825;SDS011;58446;41.490;22.098;2023-07-31T02:31:51;7.15;;;2.90;;
70825;SDS011;58446;41.490;22.098;2023-07-31T02:34:16;6.37;;;3.63;;
70825;SDS011;58446;41.490;22.098;2023-07-31T02:36:42;6.53;;;3.40;;
70825;SDS011;58446;41.490;22.098;2023-07-31T02:39:08;6.97;;;2.70;;
70825;SDS011;58446;41.490;22.098;2023-07-31T02:41:33;7.93;;;3.60;;
70825;SDS011;58446;41.490;22.098;2023-07-31T02:43:59;6.40;;;3.30;;
70825;SDS011;58446;41.490;22.098;2023-07-31T02:46:24;6.63;;;3.23;;
70825;SDS011;58446;41.490;22.098;2023-07-31T02:48:50;6.60;;;2.60;;
70825;SDS011;58446;41.490;22.098;2023-07-31T02:51:16;7.30;;;3.30;;
70825;SDS011;58446;41.490;22.098;2023-07-31T02:53:42;7.22;;;3.40;;
70825;SDS011;58446;41.490;22.098;2023-07-31T02:56:07;7.00;;;3.50;;
70825;SDS011;58446;41.490;22.098;2023-07-31T02:58:33;7.45;;;3.58;;
70825;SDS011;58446;41.490;22.098;2023-07-31T03:00:59;6.73;;;3.77;;
70825;SDS011;58446;41.490;22.098;2023-07-31T03:03:24;6.68;;;3.30;;
70825;SDS011;58446;41.490;22.098;2023-07-31T03:05:50;6.30;;;3.50;;
70825;SDS011;58446;41.490;22.098;2023-07-31T03:08:16;7.60;;;4.38;;
70825;SDS011;58446;41.490;22.098;2023-07-31T03:10:41;7.20;;;3.80;;
70825;SDS011;58446;41.490;22.098;2023-07-31T03:13:07;6.80;;;3.57;;
70825;SDS011;58446;41.490;22.098;2023-07-31T03:15:32;6.72;;;3.20;;
70825;SDS011;58446;41.490;22.098;2023-07-31T03:17:58;8.90;;;4.70;;
70825;SDS011;58446;41.490;22.098;2023-07-31T03:20:24;8.13;;;4.53;;
70825;SDS011;58446;41.490;22.098;2023-07-31T03:22:49;10.53;;;5.70;;
70825;SDS011;58446;41.490;22.098;2023-07-31T03:25:15;8.77;;;4.73;;
70825;SDS011;58446;41.490;22.098;2023-07-31T03:27:41;8.43;;;5.53;;
70825;SDS011;58446;41.490;22.098;2023-07-31T03:30:06;8.80;;;5.33;;
70825;SDS011;58446;41.490;22.098;2023-07-31T03:32:32;9.48;;;5.70;;
70825;SDS011;58446;41.490;22.098;2023-07-31T03:34:58;9.35;;;6.40;;
70825;SDS011;58446;41.490;22.098;2023-07-31T03:37:24;9.17;;;6.13;;
70825;SDS011;58446;41.490;22.098;2023-07-31T03:39:49;10.50;;;6.47;;
70825;SDS011;58446;41.490;22.098;2023-07-31T03:42:15;9.83;;;6.67;;
70825;SDS011;58446;41.490;22.098;2023-07-31T03:44:40;10.93;;;6.40;;
70825;SDS011;58446;41.490;22.098;2023-07-31T03:47:06;13.27;;;7.15;;
70825;SDS011;58446;41.490;22.098;2023-07-31T03:49:32;10.77;;;7.20;;
70825;SDS011;58446;41.490;22.098;2023-07-31T03:51:57;10.45;;;6.30;;
70825;SDS011;58446;41.490;22.098;2023-07-31T03:54:23;10.63;;;6.90;;
70825;SDS011;58446;41.490;22.098;2023-07-31T03:56:49;12.03;;;8.40;;
70825;SDS011;58446;41.490;22.098;2023-07-31T03:59:14;12.03;;;7.97;;
70825;SDS011;58446;41.490;22.098;2023-07-31T04:01:40;11.52;;;8.15;;
70825;SDS011;58446;41.490;22.098;2023-07-31T04:04:06;10.83;;;7.93;;
70825;SDS011;58446;41.490;22.098;2023-07-31T04:06:31;11.03;;;7.73;;
70825;SDS011;58446;41.490;22.098;2023-07-31T04:08:57;11.43;;;7.97;;
70825;SDS011;58446;41.490;22.098;2023-07-31T04:11:23;12.57;;;8.43;;
70825;SDS011;58446;41.490;22.098;2023-07-31T04:13:48;18.13;;;9.52;;
70825;SDS011;58446;41.490;22.098;2023-07-31T04:16:14;13.37;;;9.27;;
70825;SDS011;58446;41.490;22.098;2023-07-31T04:18:39;11.98;;;9.18;;
70825;SDS011;58446;41.490;22.098;2023-07-31T04:21:05;12.73;;;8.70;;
70825;SDS011;58446;41.490;22.098;2023-07-31T04:23:31;12.20;;;9.27;;
70825;SDS011;58446;41.490;22.098;2023-07-31T04:25:56;12.70;;;8.77;;
70825;SDS011;58446;41.490;22.098;2023-07-31T04:28:22;13.68;;;8.85;;
70825;SDS011;58446;41.490;22.098;2023-07-31T04:30:48;11.90;;;8.90;;
70825;SDS011;58446;41.490;22.098;2023-07-31T04:33:13;12.53;;;8.73;;
70825;SDS011;58446;41.490;22.098;2023-07-31T04:35:39;13.23;;;8.30;;
70825;SDS011;58446;41.490;22.098;2023-07-31T04:38:05;16.10;;;9.33;;
70825;SDS011;58446;41.490;22.098;2023-07-31T04:40:31;14.48;;;9.02;;
70825;SDS011;58446;41.490;22.098;2023-07-31T04:42:56;12.70;;;8.80;;
70825;SDS011;58446;41.490;22.098;2023-07-31T04:45:22;11.57;;;8.57;;
70825;SDS011;58446;41.490;22.098;2023-07-31T04:47:48;12.80;;;9.27;;
70825;SDS011;58446;41.490;22.098;2023-07-31T04:50:13;12.85;;;8.90;;
70825;SDS011;58446;41.490;22.098;2023-07-31T04:52:39;13.87;;;9.27;;
70825;SDS011;58446;41.490;22.098;2023-07-31T04:55:05;13.65;;;8.88;;
70825;SDS011;58446;41.490;22.098;2023-07-31T04:57:30;13.37;;;8.63;;
70825;SDS011;58446;41.490;22.098;2023-07-31T04:59:56;12.77;;;9.43;;
70825;SDS011;58446;41.490;22.098;2023-07-31T05:02:21;12.57;;;9.00;;
70825;SDS011;58446;41.490;22.098;2023-07-31T05:04:47;13.18;;;8.40;;
70825;SDS011;58446;41.490;22.098;2023-07-31T05:07:13;12.97;;;8.80;;
70825;SDS011;58446;41.490;22.098;2023-07-31T05:09:38;11.40;;;8.50;;
70825;SDS011;58446;41.490;22.098;2023-07-31T05:12:04;13.70;;;9.20;;
70825;SDS011;58446;41.490;22.098;2023-07-31T05:14:31;12.48;;;9.23;;
70825;SDS011;58446;41.490;22.098;2023-07-31T05:16:56;12.13;;;7.57;;
70825;SDS011;58446;41.490;22.098;2023-07-31T05:19:22;14.05;;;9.13;;
70825;SDS011;58446;41.490;22.098;2023-07-31T05:21:48;13.47;;;7.77;;
70825;SDS011;58446;41.490;22.098;2023-07-31T05:24:13;13.07;;;8.50;;
70825;SDS011;58446;41.490;22.098;2023-07-31T05:26:39;13.47;;;9.13;;
70825;SDS011;58446;41.490;22.098;2023-07-31T05:29:05;10.75;;;7.90;;
70825;SDS011;58446;41.490;22.098;2023-07-31T05:31:30;11.87;;;8.10;;
70825;SDS011;58446;41.490;22.098;2023-07-31T05:33:57;14.07;;;9.55;;
70825;SDS011;58446;41.490;22.098;2023-07-31T05:36:23;12.70;;;7.93;;
70825;SDS011;58446;41.490;22.098;2023-07-31T05:38:49;13.05;;;8.63;;
70825;SDS011;58446;41.490;22.098;2023-07-31T05:41:14;12.10;;;8.83;;
70825;SDS011;58446;41.490;22.098;2023-07-31T05:43:41;13.23;;;8.35;;
70825;SDS011;58446;41.490;22.098;2023-07-31T05:46:08;11.85;;;8.45;;
70825;SDS011;58446;41.490;22.098;2023-07-31T05:48:34;12.10;;;8.43;;
70825;SDS011;58446;41.490;22.098;2023-07-31T05:51:00;12.63;;;8.30;;
70825;SDS011;58446;41.490;22.098;2023-07-31T05:53:26;13.30;;;8.43;;
70825;SDS011;58446;41.490;22.098;2023-07-31T05:55:51;12.00;;;8.50;;
70825;SDS011;58446;41.490;22.098;2023-07-31T05:58:17;11.10;;;7.70;;
70825;SDS011;58446;41.490;22.098;2023-07-31T06:00:42;12.57;;;8.10;;
70825;SDS011;58446;41.490;22.098;2023-07-31T06:03:08;12.73;;;8.32;;
70825;SDS011;58446;41.490;22.098;2023-07-31T06:05:34;11.07;;;7.90;;
70825;SDS011;58446;41.490;22.098;2023-07-31T06:07:59;11.52;;;7.80;;
70825;SDS011;58446;41.490;22.098;2023-07-31T06:10:26;10.97;;;7.50;;
70825;SDS011;58446;41.490;22.098;2023-07-31T06:12:52;10.55;;;7.13;;
70825;SDS011;58446;41.490;22.098;2023-07-31T06:15:17;12.30;;;7.38;;
70825;SDS011;58446;41.490;22.098;2023-07-31T06:17:44;12.45;;;8.20;;
70825;SDS011;58446;41.490;22.098;2023-07-31T06:20:10;12.90;;;7.23;;
70825;SDS011;58446;41.490;22.098;2023-07-31T06:22:36;11.23;;;7.45;;
70825;SDS011;58446;41.490;22.098;2023-07-31T06:25:02;11.30;;;7.68;;
70825;SDS011;58446;41.490;22.098;2023-07-31T06:27:28;12.87;;;9.00;;
70825;SDS011;58446;41.490;22.098;2023-07-31T06:29:53;12.18;;;7.82;;
70825;SDS011;58446;41.490;22.098;2023-07-31T06:32:19;11.47;;;7.67;;
70825;SDS011;58446;41.490;22.098;2023-07-31T06:34:45;11.80;;;7.65;;
70825;SDS011;58446;41.490;22.098;2023-07-31T06:37:10;10.43;;;6.87;;
70825;SDS011;58446;41.490;22.098;2023-07-31T06:39:36;10.68;;;7.68;;
70825;SDS011;58446;41.490;22.098;2023-07-31T06:42:02;10.90;;;7.43;;
70825;SDS011;58446;41.490;22.098;2023-07-31T06:44:29;12.20;;;7.07;;
70825;SDS011;58446;41.490;22.098;2023-07-31T06:46:54;12.15;;;7.80;;
70825;SDS011;58446;41.490;22.098;2023-07-31T06:49:20;12.83;;;8.10;;
70825;SDS011;58446;41.490;22.098;2023-07-31T06:51:46;10.90;;;8.15;;
70825;SDS011;58446;41.490;22.098;2023-07-31T06:54:12;10.73;;;7.85;;
70825;SDS011;58446;41.490;22.098;2023-07-31T06:56:38;11.80;;;8.10;;
70825;SDS011;58446;41.490;22.098;2023-07-31T06:59:03;13.73;;;8.07;;
70825;SDS011;58446;41.490;22.098;2023-07-31T07:01:29;11.85;;;8.70;;
70825;SDS011;58446;41.490;22.098;2023-07-31T07:03:54;11.17;;;7.50;;
70825;SDS011;58446;41.490;22.098;2023-07-31T07:06:21;13.30;;;8.82;;
70825;SDS011;58446;41.490;22.098;2023-07-31T07:08:47;12.70;;;8.82;;
70825;SDS011;58446;41.490;22.098;2023-07-31T07:11:13;14.07;;;8.80;;
70825;SDS011;58446;41.490;22.098;2023-07-31T07:13:39;11.90;;;8.50;;
70825;SDS011;58446;41.490;22.098;2023-07-31T07:16:04;12.07;;;9.10;;
70825;SDS011;58446;41.490;22.098;2023-07-31T07:18:30;13.88;;;8.57;;
70825;SDS011;58446;41.490;22.098;2023-07-31T07:20:56;14.00;;;9.20;;
70825;SDS011;58446;41.490;22.098;2023-07-31T07:23:23;12.48;;;8.70;;
70825;SDS011;58446;41.490;22.098;2023-07-31T07:25:49;14.30;;;8.32;;
70825;SDS011;58446;41.490;22.098;2023-07-31T07:28:16;12.40;;;8.98;;
70825;SDS011;58446;41.490;22.098;2023-07-31T07:30:42;11.50;;;7.67;;
70825;SDS011;58446;41.490;22.098;2023-07-31T07:33:07;11.33;;;7.90;;
70825;SDS011;58446;41.490;22.098;2023-07-31T07:35:38;13.05;;;8.23;;
70825;SDS011;58446;41.490;22.098;2023-07-31T07:38:03;12.80;;;8.07;;
70825;SDS011;58446;41.490;22.098;2023-07-31T07:40:29;12.70;;;7.63;;
70825;SDS011;58446;41.490;22.098;2023-07-31T07:42:55;11.87;;;7.90;;
70825;SDS011;58446;41.490;22.098;2023-07-31T07:45:20;12.05;;;7.30;;
70825;SDS011;58446;41.490;22.098;2023-07-31T07:47:46;12.60;;;7.97;;
70825;SDS011;58446;41.490;22.098;2023-07-31T07:50:11;12.80;;;7.57;;
70825;SDS011;58446;41.490;22.098;2023-07-31T07:52:37;12.73;;;7.53;;
70825;SDS011;58446;41.490;22.098;2023-07-31T07:55:03;11.30;;;7.15;;
70825;SDS011;58446;41.490;22.098;2023-07-31T07:57:29;11.00;;;7.07;;
70825;SDS011;58446;41.490;22.098;2023-07-31T07:59:55;12.30;;;7.70;;
70825;SDS011;58446;41.490;22.098;2023-07-31T08:02:21;11.43;;;7.73;;
70825;SDS011;58446;41.490;22.098;2023-07-31T08:04:47;11.38;;;7.93;;
70825;SDS011;58446;41.490;22.098;2023-07-31T08:07:13;13.25;;;8.57;;
70825;SDS011;58446;41.490;22.098;2023-07-31T08:09:39;11.68;;;7.80;;
70825;SDS011;58446;41.490;22.098;2023-07-31T08:12:05;12.43;;;7.57;;
70825;SDS011;58446;41.490;22.098;2023-07-31T08:14:31;11.88;;;7.90;;
70825;SDS011;58446;41.490;22.098;2023-07-31T08:16:57;11.55;;;8.38;;
70825;SDS011;58446;41.490;22.098;2023-07-31T08:19:22;13.07;;;7.53;;
70825;SDS011;58446;41.490;22.098;2023-07-31T08:21:48;11.63;;;8.05;;
70825;SDS011;58446;41.490;22.098;2023-07-31T08:24:14;12.97;;;7.67;;
70825;SDS011;58446;41.490;22.098;2023-07-31T08:26:39;11.07;;;7.78;;
70825;SDS011;58446;41.490;22.098;2023-07-31T08:29:05;11.53;;;7.53;;
70825;SDS011;58446;41.490;22.098;2023-07-31T08:31:31;11.23;;;8.32;;
70825;SDS011;58446;41.490;22.098;2023-07-31T08:33:56;10.97;;;7.77;;
70825;SDS011;58446;41.490;22.098;2023-07-31T08:36:22;13.70;;;5.60;;
70825;SDS011;58446;41.490;22.098;2023-07-31T08:38:48;11.50;;;6.45;;
70825;SDS011;58446;41.490;22.098;2023-07-31T08:41:15;13.65;;;6.78;;
70825;SDS011;58446;41.490;22.098;2023-07-31T08:43:44;9.40;;;6.05;;
70825;SDS011;58446;41.490;22.098;2023-07-31T08:46:11;10.37;;;6.37;;
70825;SDS011;58446;41.490;22.098;2023-07-31T08:48:43;10.25;;;6.63;;
70825;SDS011;58446;41.490;22.098;2023-07-31T08:51:09;10.98;;;6.80;;
70825;SDS011;58446;41.490;22.098;2023-07-31T08:53:35;11.33;;;6.97;;
70825;SDS011;58446;41.490;22.098;2023-07-31T08:56:00;10.60;;;6.70;;
70825;SDS011;58446;41.490;22.098;2023-07-31T08:58:27;10.98;;;6.80;;
70825;SDS011;58446;41.490;22.098;2023-07-31T09:00:56;11.00;;;6.93;;
70825;SDS011;58446;41.490;22.098;2023-07-31T09:03:24;10.10;;;6.37;;
70825;SDS011;58446;41.490;22.098;2023-07-31T09:05:51;11.18;;;7.40;;
70825;SDS011;58446;41.490;22.098;2023-07-31T09:08:19;10.70;;;6.22;;
70825;SDS011;58446;41.490;22.098;2023-07-31T09:10:46;10.73;;;7.07;;
70825;SDS011;58446;41.490;22.098;2023-07-31T09:13:13;10.27;;;7.07;;
70825;SDS011;58446;41.490;22.098;2023-07-31T09:15:40;10.23;;;6.37;;
70825;SDS011;58446;41.490;22.098;2023-07-31T09:18:07;9.43;;;5.18;;
70825;SDS011;58446;41.490;22.098;2023-07-31T09:20:34;10.55;;;6.05;;
70825;SDS011;58446;41.490;22.098;2023-07-31T09:23:07;12.50;;;6.05;;
70825;SDS011;58446;41.490;22.098;2023-07-31T09:25:38;11.60;;;7.00;;
70825;SDS011;58446;41.490;22.098;2023-07-31T09:28:06;12.23;;;6.20;;
70825;SDS011;58446;41.490;22.098;2023-07-31T09:30:49;13.23;;;6.80;;
70825;SDS011;58446;41.490;22.098;2023-07-31T09:33:17;12.25;;;7.70;;
70825;SDS011;58446;41.490;22.098;2023-07-31T09:35:43;11.93;;;7.35;;
70825;SDS011;58446;41.490;22.098;2023-07-31T09:38:13;10.30;;;7.00;;
70825;SDS011;58446;41.490;22.098;2023-07-31T09:40:40;10.25;;;6.47;;
70825;SDS011;58446;41.490;22.098;2023-07-31T09:43:11;9.90;;;6.35;;
70825;SDS011;58446;41.490;22.098;2023-07-31T09:45:39;10.05;;;5.93;;
70825;SDS011;58446;41.490;22.098;2023-07-31T09:50:37;10.83;;;7.37;;
70825;SDS011;58446;41.490;22.098;2023-07-31T09:53:04;10.27;;;6.50;;
70825;SDS011;58446;41.490;22.098;2023-07-31T09:55:31;11.82;;;7.25;;
70825;SDS011;58446;41.490;22.098;2023-07-31T09:57:58;10.63;;;6.60;;
70825;SDS011;58446;41.490;22.098;2023-07-31T10:00:23;11.65;;;7.75;;
70825;SDS011;58446;41.490;22.098;2023-07-31T10:02:53;10.60;;;7.27;;
70825;SDS011;58446;41.490;22.098;2023-07-31T10:05:21;10.88;;;7.40;;
70825;SDS011;58446;41.490;22.098;2023-07-31T10:08:06;11.15;;;7.60;;
70825;SDS011;58446;41.490;22.098;2023-07-31T10:10:34;11.07;;;7.15;;
70825;SDS011;58446;41.490;22.098;2023-07-31T10:13:01;11.02;;;7.88;;
70825;SDS011;58446;41.490;22.098;2023-07-31T10:15:27;11.53;;;8.03;;
70825;SDS011;58446;41.490;22.098;2023-07-31T10:17:55;11.75;;;7.38;;
70825;SDS011;58446;41.490;22.098;2023-07-31T10:20:21;11.32;;;6.93;;
70825;SDS011;58446;41.490;22.098;2023-07-31T10:22:47;12.00;;;7.40;;
70825;SDS011;58446;41.490;22.098;2023-07-31T10:25:15;10.03;;;6.97;;
70825;SDS011;58446;41.490;22.098;2023-07-31T10:27:41;10.63;;;7.85;;
70825;SDS011;58446;41.490;22.098;2023-07-31T10:30:08;10.65;;;6.60;;
70825;SDS011;58446;41.490;22.098;2023-07-31T10:32:38;10.15;;;7.05;;
70825;SDS011;58446;41.490;22.098;2023-07-31T10:35:07;10.13;;;6.70;;
70825;SDS011;58446;41.490;22.098;2023-07-31T10:40:06;10.45;;;7.45;;
70825;SDS011;58446;41.490;22.098;2023-07-31T10:42:38;11.30;;;7.40;;
70825;SDS011;58446;41.490;22.098;2023-07-31T10:45:12;9.30;;;6.03;;
70825;SDS011;58446;41.490;22.098;2023-07-31T10:47:42;9.20;;;5.57;;
70825;SDS011;58446;41.490;22.098;2023-07-31T10:50:13;9.95;;;6.63;;
70825;SDS011;58446;41.490;22.098;2023-07-31T10:52:57;9.75;;;5.75;;
70825;SDS011;58446;41.490;22.098;2023-07-31T10:55:25;9.80;;;5.90;;
70825;SDS011;58446;41.490;22.098;2023-07-31T10:58:10;11.00;;;7.32;;
70825;SDS011;58446;41.490;22.098;2023-07-31T11:00:38;9.77;;;6.70;;
70825;SDS011;58446;41.490;22.098;2023-07-31T11:03:14;9.80;;;6.35;;
70825;SDS011;58446;41.490;22.098;2023-07-31T11:05:46;10.25;;;6.45;;
70825;SDS011;58446;41.490;22.098;2023-07-31T11:10:45;10.93;;;5.85;;
70825;SDS011;58446;41.490;22.098;2023-07-31T11:13:12;9.20;;;6.17;;
70825;SDS011;58446;41.490;22.098;2023-07-31T11:15:38;8.05;;;5.45;;
70825;SDS011;58446;41.490;22.098;2023-07-31T11:18:04;8.55;;;4.60;;
70825;SDS011;58446;41.490;22.098;2023-07-31T11:20:33;7.85;;;5.25;;
70825;SDS011;58446;41.490;22.098;2023-07-31T11:23:03;8.43;;;4.47;;
70825;SDS011;58446;41.490;22.098;2023-07-31T11:25:31;7.85;;;4.80;;
70825;SDS011;58446;41.490;22.098;2023-07-31T11:28:08;8.43;;;5.22;;
70825;SDS011;58446;41.490;22.098;2023-07-31T11:30:36;8.23;;;5.03;;
70825;SDS011;58446;41.490;22.098;2023-07-31T11:33:02;8.70;;;5.40;;
70825;SDS011;58446;41.490;22.098;2023-07-31T11:35:31;7.93;;;5.10;;
70825;SDS011;58446;41.490;22.098;2023-07-31T11:38:21;8.70;;;4.47;;
70825;SDS011;58446;41.490;22.098;2023-07-31T11:40:50;8.30;;;4.97;;
70825;SDS011;58446;41.490;22.098;2023-07-31T11:43:17;7.50;;;4.72;;
70825;SDS011;58446;41.490;22.098;2023-07-31T11:45:47;8.45;;;5.07;;
70825;SDS011;58446;41.490;22.098;2023-07-31T11:48:29;8.73;;;5.30;;
70825;SDS011;58446;41.490;22.098;2023-07-31T11:51:06;7.85;;;4.65;;
70825;SDS011;58446;41.490;22.098;2023-07-31T11:56:16;7.97;;;4.57;;
70825;SDS011;58446;41.490;22.098;2023-07-31T11:58:44;8.50;;;4.55;;
70825;SDS011;58446;41.490;22.098;2023-07-31T12:01:11;7.80;;;4.50;;
70825;SDS011;58446;41.490;22.098;2023-07-31T12:03:39;7.70;;;3.92;;
70825;SDS011;58446;41.490;22.098;2023-07-31T12:06:07;8.70;;;4.88;;
70825;SDS011;58446;41.490;22.098;2023-07-31T12:08:33;7.77;;;4.60;;
70825;SDS011;58446;41.490;22.098;2023-07-31T12:11:04;8.10;;;4.40;;
70825;SDS011;58446;41.490;22.098;2023-07-31T12:13:31;8.48;;;4.82;;
70825;SDS011;58446;41.490;22.098;2023-07-31T12:16:00;6.82;;;3.90;;
70825;SDS011;58446;41.490;22.098;2023-07-31T12:18:28;7.23;;;3.90;;
70825;SDS011;58446;41.490;22.098;2023-07-31T12:20:59;7.35;;;4.20;;
70825;SDS011;58446;41.490;22.098;2023-07-31T12:23:26;7.95;;;4.25;;
70825;SDS011;58446;41.490;22.098;2023-07-31T12:26:07;8.80;;;3.83;;
70825;SDS011;58446;41.490;22.098;2023-07-31T12:28:47;6.65;;;4.13;;
70825;SDS011;58446;41.490;22.098;2023-07-31T12:31:18;7.70;;;3.73;;
70825;SDS011;58446;41.490;22.098;2023-07-31T12:33:46;7.78;;;3.70;;
70825;SDS011;58446;41.490;22.098;2023-07-31T12:36:14;6.95;;;3.35;;
70825;SDS011;58446;41.490;22.098;2023-07-31T12:38:41;6.50;;;3.63;;
70825;SDS011;58446;41.490;22.098;2023-07-31T12:41:07;7.32;;;4.00;;
70825;SDS011;58446;41.490;22.098;2023-07-31T12:43:34;7.30;;;4.13;;
70825;SDS011;58446;41.490;22.098;2023-07-31T12:46:00;7.53;;;3.65;;
70825;SDS011;58446;41.490;22.098;2023-07-31T12:48:26;7.30;;;4.20;;
70825;SDS011;58446;41.490;22.098;2023-07-31T12:50:51;5.70;;;2.70;;
70825;SDS011;58446;41.490;22.098;2023-07-31T12:53:17;8.25;;;3.88;;
70825;SDS011;58446;41.490;22.098;2023-07-31T12:55:42;9.17;;;4.07;;
70825;SDS011;58446;41.490;22.098;2023-07-31T12:58:08;7.10;;;4.28;;
70825;SDS011;58446;41.490;22.098;2023-07-31T13:00:34;8.63;;;4.83;;
70825;SDS011;58446;41.490;22.098;2023-07-31T13:03:00;7.95;;;4.65;;
70825;SDS011;58446;41.490;22.098;2023-07-31T13:05:27;7.40;;;4.20;;
70825;SDS011;58446;41.490;22.098;2023-07-31T13:07:53;6.53;;;3.67;;
70825;SDS011;58446;41.490;22.098;2023-07-31T13:10:19;7.05;;;3.75;;
70825;SDS011;58446;41.490;22.098;2023-07-31T13:12:44;6.70;;;3.83;;
70825;SDS011;58446;41.490;22.098;2023-07-31T13:15:10;7.20;;;4.47;;
70825;SDS011;58446;41.490;22.098;2023-07-31T13:17:37;6.75;;;3.85;;
70825;SDS011;58446;41.490;22.098;2023-07-31T13:20:02;7.47;;;3.90;;
70825;SDS011;58446;41.490;22.098;2023-07-31T13:22:29;7.70;;;3.75;;
70825;SDS011;58446;41.490;22.098;2023-07-31T13:24:55;7.80;;;4.13;;
70825;SDS011;58446;41.490;22.098;2023-07-31T13:27:20;8.93;;;4.07;;
70825;SDS011;58446;41.490;22.098;2023-07-31T13:29:52;7.57;;;3.78;;
70825;SDS011;58446;41.490;22.098;2023-07-31T13:32:19;8.27;;;4.00;;
70825;SDS011;58446;41.490;22.098;2023-07-31T13:34:46;7.95;;;4.30;;
70825;SDS011;58446;41.490;22.098;2023-07-31T13:37:12;8.13;;;4.43;;
70825;SDS011;58446;41.490;22.098;2023-07-31T13:39:38;6.77;;;3.60;;
70825;SDS011;58446;41.490;22.098;2023-07-31T13:42:04;7.30;;;4.40;;
70825;SDS011;58446;41.490;22.098;2023-07-31T13:44:36;7.20;;;4.22;;
70825;SDS011;58446;41.490;22.098;2023-07-31T13:47:06;7.07;;;4.18;;
70825;SDS011;58446;41.490;22.098;2023-07-31T13:49:32;6.83;;;3.93;;
70825;SDS011;58446;41.490;22.098;2023-07-31T13:51:59;8.38;;;4.05;;
70825;SDS011;58446;41.490;22.098;2023-07-31T13:54:25;8.15;;;4.50;;
70825;SDS011;58446;41.490;22.098;2023-07-31T13:56:53;7.20;;;4.20;;
70825;SDS011;58446;41.490;22.098;2023-07-31T13:59:19;8.07;;;4.50;;
70825;SDS011;58446;41.490;22.098;2023-07-31T14:01:45;8.23;;;4.57;;
70825;SDS011;58446;41.490;22.098;2023-07-31T14:04:11;7.78;;;4.28;;
70825;SDS011;58446;41.490;22.098;2023-07-31T14:06:37;7.50;;;4.50;;
70825;SDS011;58446;41.490;22.098;2023-07-31T14:09:03;7.10;;;4.70;;
70825;SDS011;58446;41.490;22.098;2023-07-31T14:11:30;7.83;;;4.10;;
70825;SDS011;58446;41.490;22.098;2023-07-31T14:13:56;8.93;;;5.13;;
70825;SDS011;58446;41.490;22.098;2023-07-31T14:16:22;7.55;;;4.40;;
70825;SDS011;58446;41.490;22.098;2023-07-31T14:18:48;6.90;;;3.95;;
70825;SDS011;58446;41.490;22.098;2023-07-31T14:21:14;8.83;;;4.67;;
70825;SDS011;58446;41.490;22.098;2023-07-31T14:23:40;7.95;;;4.60;;
70825;SDS011;58446;41.490;22.098;2023-07-31T14:26:06;7.50;;;4.53;;
70825;SDS011;58446;41.490;22.098;2023-07-31T14:28:32;8.10;;;4.97;;
70825;SDS011;58446;41.490;22.098;2023-07-31T14:30:58;9.23;;;5.60;;
70825;SDS011;58446;41.490;22.098;2023-07-31T14:33:23;7.20;;;4.63;;
70825;SDS011;58446;41.490;22.098;2023-07-31T14:35:49;9.70;;;4.97;;
70825;SDS011;58446;41.490;22.098;2023-07-31T14:38:15;8.70;;;5.75;;
70825;SDS011;58446;41.490;22.098;2023-07-31T14:40:41;9.73;;;6.20;;
70825;SDS011;58446;41.490;22.098;2023-07-31T14:43:07;9.70;;;6.00;;